createdAt,value
2016-01-18T00:00:40.333Z,1018.6
2016-01-18T00:01:40.398Z,1018.62
2016-01-18T00:02:40.448Z,1018.64
2016-01-18T00:03:40.497Z,1018.61
2016-01-18T00:04:40.562Z,1018.65
2016-01-18T00:05:40.612Z,1018.65
2016-01-18T00:06:40.661Z,1018.65
2016-01-18T00:07:40.726Z,1018.67
2016-01-18T00:08:40.776Z,1018.65
2016-01-18T00:09:40.825Z,1018.66
2016-01-18T00:10:40.875Z,1018.65
2016-01-18T00:11:40.940Z,1018.64
2016-01-18T00:12:40.990Z,1018.64
2016-01-18T00:13:41.055Z,1018.66
2016-01-18T00:14:41.105Z,1018.6
2016-01-18T00:15:41.154Z,1018.61
2016-01-18T00:16:41.203Z,1018.62
2016-01-18T00:17:41.269Z,1018.59
2016-01-18T00:18:41.319Z,1018.63
2016-01-18T00:19:41.368Z,1018.6
2016-01-18T00:20:41.433Z,1018.63
2016-01-18T00:21:41.483Z,1018.61
2016-01-18T00:22:41.532Z,1018.53
2016-01-18T00:23:41.597Z,1018.56
2016-01-18T00:24:41.646Z,1018.56
2016-01-18T00:25:41.697Z,1018.55
2016-01-18T00:26:41.746Z,1018.52
2016-01-18T00:27:41.812Z,1018.55
2016-01-18T00:28:41.861Z,1018.61
2016-01-18T00:29:41.910Z,1018.59
2016-01-18T00:30:41.960Z,1018.61
2016-01-18T00:31:42.026Z,1018.63
2016-01-18T00:32:42.075Z,1018.6
2016-01-18T00:33:42.156Z,1018.64
2016-01-18T00:34:42.189Z,1018.59
2016-01-18T00:35:42.239Z,1018.6
2016-01-18T00:36:42.289Z,1018.57
2016-01-18T00:37:42.354Z,1018.58
2016-01-18T00:38:42.404Z,1018.58
2016-01-18T00:39:42.453Z,1018.59
2016-01-18T00:40:42.518Z,1018.56
2016-01-18T00:41:42.567Z,1018.59
2016-01-18T00:42:42.618Z,1018.62
2016-01-18T00:43:42.667Z,1018.59
2016-01-18T00:44:42.733Z,1018.58
2016-01-18T00:45:42.782Z,1018.58
2016-01-18T00:46:42.831Z,1018.57
2016-01-18T00:47:42.898Z,1018.56
2016-01-18T00:48:42.948Z,1018.54
2016-01-18T00:49:42.998Z,1018.54
2016-01-18T00:50:43.063Z,1018.51
2016-01-18T00:51:43.113Z,1018.48
2016-01-18T00:52:43.162Z,1018.49
2016-01-18T00:53:43.212Z,1018.47
2016-01-18T00:54:43.276Z,1018.46
2016-01-18T00:55:43.327Z,1018.49
2016-01-18T00:56:43.376Z,1018.43
2016-01-18T00:57:43.440Z,1018.47
2016-01-18T00:58:43.490Z,1018.45
2016-01-18T00:59:43.540Z,1018.46
2016-01-18T01:00:43.606Z,1018.42
2016-01-18T01:01:43.655Z,1018.4
2016-01-18T01:02:43.704Z,1018.37
2016-01-18T01:03:43.770Z,1018.41
2016-01-18T01:04:43.820Z,1018.46
2016-01-18T01:05:43.869Z,1018.4
2016-01-18T01:06:43.933Z,1018.46
2016-01-18T01:07:43.984Z,1018.39
2016-01-18T01:08:44.034Z,1018.42
2016-01-18T01:09:44.083Z,1018.4
2016-01-18T01:10:44.147Z,1018.38
2016-01-18T01:11:44.197Z,1018.35
2016-01-18T01:12:44.247Z,1018.38
2016-01-18T01:13:44.313Z,1018.35
2016-01-18T01:14:44.361Z,1018.36
2016-01-18T01:15:44.411Z,1018.32
2016-01-18T01:16:44.461Z,1018.32
2016-01-18T01:17:44.527Z,1018.31
2016-01-18T01:18:44.576Z,1018.28
2016-01-18T01:19:44.625Z,1018.25
2016-01-18T01:20:44.691Z,1018.25
2016-01-18T01:21:44.741Z,1018.18
2016-01-18T01:22:44.791Z,1018.22
2016-01-18T01:23:44.855Z,1018.19
2016-01-18T01:24:44.906Z,1018.22
2016-01-18T01:25:44.955Z,1018.17
2016-01-18T01:26:45.020Z,1018.19
2016-01-18T01:27:45.069Z,1018.18
2016-01-18T01:28:45.119Z,1018.19
2016-01-18T01:29:45.169Z,1018.2
2016-01-18T01:30:45.218Z,1018.15
2016-01-18T01:31:45.283Z,1018.18
2016-01-18T01:32:45.332Z,1018.15
2016-01-18T01:33:45.383Z,1018.2
2016-01-18T01:34:45.479Z,1018.19
2016-01-18T01:35:45.498Z,1018.19
2016-01-18T01:36:45.546Z,1018.19
2016-01-18T01:37:45.629Z,1018.2
2016-01-18T01:38:45.662Z,1018.21
2016-01-18T01:39:45.712Z,1018.19
2016-01-18T01:40:45.761Z,1018.2
2016-01-18T01:41:45.826Z,1018.2
2016-01-18T01:42:45.876Z,1018.19
2016-01-18T01:43:45.926Z,1018.16
2016-01-18T01:44:45.990Z,1018.14
2016-01-18T01:45:46.039Z,1018.17
2016-01-18T01:46:46.090Z,1018.16
2016-01-18T01:47:46.155Z,1018.12
2016-01-18T01:48:46.204Z,1018.1
2016-01-18T01:49:46.253Z,1018.08
2016-01-18T01:50:46.319Z,1018.05
2016-01-18T01:51:46.369Z,1018.03
2016-01-18T01:52:46.419Z,1018.03
2016-01-18T01:53:46.467Z,1018.03
2016-01-18T01:54:46.533Z,1017.99
2016-01-18T01:55:46.583Z,1017.99
2016-01-18T01:56:46.632Z,1018
2016-01-18T01:57:46.682Z,1018
2016-01-18T01:58:46.747Z,1017.96
2016-01-18T01:59:46.797Z,1017.93
2016-01-18T02:00:46.861Z,1017.92
2016-01-18T02:01:46.896Z,1017.89
2016-01-18T02:02:46.960Z,1017.91
2016-01-18T02:03:47.011Z,1017.94
2016-01-18T02:04:47.060Z,1017.94
2016-01-18T02:05:47.124Z,1017.95
2016-01-18T02:06:47.174Z,1017.95
2016-01-18T02:07:47.224Z,1017.94
2016-01-18T02:08:47.290Z,1017.96
2016-01-18T02:09:47.339Z,1017.93
2016-01-18T02:10:47.388Z,1017.88
2016-01-18T02:11:47.454Z,1017.9
2016-01-18T02:12:47.504Z,1017.93
2016-01-18T02:13:47.553Z,1017.92
2016-01-18T02:14:47.603Z,1017.9
2016-01-18T02:15:47.668Z,1017.93
2016-01-18T02:16:47.717Z,1017.93
2016-01-18T02:17:47.767Z,1017.95
2016-01-18T02:18:47.831Z,1017.95
2016-01-18T02:19:47.881Z,1017.89
2016-01-18T02:20:47.931Z,1017.94
2016-01-18T02:21:47.981Z,1017.93
2016-01-18T02:22:48.045Z,1017.87
2016-01-18T02:23:48.095Z,1017.83
2016-01-18T02:24:48.144Z,1017.82
2016-01-18T02:25:48.210Z,1017.77
2016-01-18T02:26:48.463Z,1017.81
2016-01-18T02:27:48.309Z,1017.8
2016-01-18T02:28:48.359Z,1017.83
2016-01-18T02:29:48.424Z,1017.8
2016-01-18T02:30:48.474Z,1017.8
2016-01-18T02:31:48.523Z,1017.78
2016-01-18T02:32:48.589Z,1017.77
2016-01-18T02:33:48.638Z,1017.72
2016-01-18T02:34:48.688Z,1017.75
2016-01-18T02:35:48.752Z,1017.73
2016-01-18T02:36:48.802Z,1017.75
2016-01-18T02:37:48.852Z,1017.72
2016-01-18T02:38:48.902Z,1017.76
2016-01-18T02:39:48.966Z,1017.68
2016-01-18T02:40:49.015Z,1017.68
2016-01-18T02:41:49.065Z,1017.66
2016-01-18T02:42:49.115Z,1017.63
2016-01-18T02:43:49.181Z,1017.66
2016-01-18T02:44:49.229Z,1017.61
2016-01-18T02:45:49.279Z,1017.63
2016-01-18T02:46:49.329Z,1017.59
2016-01-18T02:47:49.395Z,1017.56
2016-01-18T02:48:49.444Z,1017.58
2016-01-18T02:49:49.493Z,1017.6
2016-01-18T02:50:49.559Z,1017.6
2016-01-18T02:51:49.609Z,1017.58
2016-01-18T02:52:49.658Z,1017.55
2016-01-18T02:53:49.722Z,1017.52
2016-01-18T02:54:49.773Z,1017.5
2016-01-18T02:55:49.822Z,1017.5
2016-01-18T02:56:49.887Z,1017.5
2016-01-18T02:57:49.936Z,1017.48
2016-01-18T02:58:49.986Z,1017.47
2016-01-18T02:59:50.036Z,1017.45
2016-01-18T03:00:50.101Z,1017.42
2016-01-18T03:01:50.150Z,1017.45
2016-01-18T03:02:50.200Z,1017.45
2016-01-18T03:03:50.250Z,1017.43
2016-01-18T03:04:50.315Z,1017.38
2016-01-18T03:05:50.365Z,1017.39
2016-01-18T03:06:50.414Z,1017.36
2016-01-18T03:07:50.480Z,1017.38
2016-01-18T03:08:50.529Z,1017.38
2016-01-18T03:09:50.579Z,1017.34
2016-01-18T03:10:50.628Z,1017.36
2016-01-18T03:11:50.694Z,1017.34
2016-01-18T03:12:50.743Z,1017.36
2016-01-18T03:13:50.793Z,1017.33
2016-01-18T03:14:50.857Z,1017.34
2016-01-18T03:15:50.906Z,1017.33
2016-01-18T03:16:50.957Z,1017.34
2016-01-18T03:17:51.023Z,1017.35
2016-01-18T03:18:51.071Z,1017.32
2016-01-18T03:19:51.120Z,1017.29
2016-01-18T03:20:51.187Z,1017.26
2016-01-18T03:21:51.236Z,1017.22
2016-01-18T03:22:51.286Z,1017.23
2016-01-18T03:23:51.334Z,1017.24
2016-01-18T03:24:51.400Z,1017.22
2016-01-18T03:25:51.450Z,1017.23
2016-01-18T03:26:51.500Z,1017.25
2016-01-18T03:27:51.549Z,1017.21
2016-01-18T03:28:51.598Z,1017.24
2016-01-18T03:29:51.664Z,1017.19
2016-01-18T03:30:51.713Z,1017.18
2016-01-18T03:31:51.778Z,1017.13
2016-01-18T03:32:51.827Z,1017.16
2016-01-18T03:33:51.878Z,1017.13
2016-01-18T03:34:51.927Z,1017.12
2016-01-18T03:35:51.977Z,1017.14
2016-01-18T03:36:52.041Z,1017.11
2016-01-18T03:37:52.091Z,1017.12
2016-01-18T03:38:52.141Z,1017.07
2016-01-18T03:39:52.206Z,1017.01
2016-01-18T03:40:52.255Z,1016.99
2016-01-18T03:41:52.305Z,1016.9
2016-01-18T03:42:52.354Z,1016.93
2016-01-18T03:43:52.420Z,1016.89
2016-01-18T03:44:52.469Z,1016.91
2016-01-18T03:45:52.535Z,1016.93
2016-01-18T03:46:52.569Z,1016.88
2016-01-18T03:47:52.634Z,1016.84
2016-01-18T03:48:52.684Z,1016.85
2016-01-18T03:49:52.733Z,1016.88
2016-01-18T03:50:52.799Z,1016.83
2016-01-18T03:51:52.848Z,1016.82
2016-01-18T03:52:52.898Z,1016.85
2016-01-18T03:53:52.962Z,1016.83
2016-01-18T03:54:52.996Z,1016.86
2016-01-18T03:55:53.062Z,1016.83
2016-01-18T03:56:53.112Z,1016.85
2016-01-18T03:57:53.176Z,1016.85
2016-01-18T03:58:53.225Z,1016.74
2016-01-18T03:59:53.275Z,1016.76
2016-01-18T04:00:53.325Z,1016.77
2016-01-18T04:01:53.391Z,1016.75
2016-01-18T04:02:53.439Z,1016.72
2016-01-18T04:03:53.485Z,1016.75
2016-01-18T04:04:53.551Z,1016.77
2016-01-18T04:05:53.601Z,1016.73
2016-01-18T04:06:53.650Z,1016.79
2016-01-18T04:07:53.715Z,1016.78
2016-01-18T04:08:53.765Z,1016.79
2016-01-18T04:09:53.814Z,1016.79
2016-01-18T04:10:53.864Z,1016.78
2016-01-18T04:11:53.928Z,1016.81
2016-01-18T04:12:53.979Z,1016.75
2016-01-18T04:13:54.028Z,1016.74
2016-01-18T04:14:54.078Z,1016.72
2016-01-18T04:15:54.142Z,1016.73
2016-01-18T04:16:54.192Z,1016.76
2016-01-18T04:17:54.242Z,1016.78
2016-01-18T04:18:54.307Z,1016.75
2016-01-18T04:19:54.356Z,1016.75
2016-01-18T04:20:54.406Z,1016.74
2016-01-18T04:21:54.455Z,1016.76
2016-01-18T04:22:54.521Z,1016.72
2016-01-18T04:23:54.571Z,1016.7
2016-01-18T04:24:54.619Z,1016.69
2016-01-18T04:25:54.669Z,1016.67
2016-01-18T04:26:54.735Z,1016.64
2016-01-18T04:27:54.785Z,1016.58
2016-01-18T04:28:54.834Z,1016.57
2016-01-18T04:29:54.883Z,1016.59
2016-01-18T04:30:54.948Z,1016.56
2016-01-18T04:31:54.998Z,1016.56
2016-01-18T04:32:55.043Z,1016.52
2016-01-18T04:33:55.098Z,1016.47
2016-01-18T04:34:55.146Z,1016.5
2016-01-18T04:35:55.196Z,1016.46
2016-01-18T04:36:55.262Z,1016.48
2016-01-18T04:37:55.312Z,1016.53
2016-01-18T04:38:55.361Z,1016.51
2016-01-18T04:39:55.410Z,1016.5
2016-01-18T04:40:55.460Z,1016.47
2016-01-18T04:41:55.526Z,1016.52
2016-01-18T04:42:55.575Z,1016.51
2016-01-18T04:43:55.625Z,1016.51
2016-01-18T04:44:55.690Z,1016.49
2016-01-18T04:45:55.739Z,1016.52
2016-01-18T04:46:55.789Z,1016.47
2016-01-18T04:47:55.838Z,1016.47
2016-01-18T04:48:55.903Z,1016.49
2016-01-18T04:49:55.953Z,1016.46
2016-01-18T04:50:56.003Z,1016.45
2016-01-18T04:51:56.052Z,1016.41
2016-01-18T04:52:56.117Z,1016.41
2016-01-18T04:53:56.166Z,1016.42
2016-01-18T04:54:56.217Z,1016.41
2016-01-18T04:55:56.282Z,1016.38
2016-01-18T04:56:56.331Z,1016.41
2016-01-18T04:57:56.380Z,1016.39
2016-01-18T04:58:56.430Z,1016.39
2016-01-18T04:59:56.496Z,1016.38
2016-01-18T05:00:56.545Z,1016.37
2016-01-18T05:01:56.594Z,1016.37
2016-01-18T05:02:56.644Z,1016.37
2016-01-18T05:03:56.710Z,1016.38
2016-01-18T05:04:56.900Z,1016.38
2016-01-18T05:05:56.809Z,1016.38
2016-01-18T05:06:56.874Z,1016.35
2016-01-18T05:07:56.924Z,1016.37
2016-01-18T05:08:56.973Z,1016.36
2016-01-18T05:09:57.023Z,1016.34
2016-01-18T05:10:57.087Z,1016.36
2016-01-18T05:11:57.138Z,1016.33
2016-01-18T05:12:57.187Z,1016.33
2016-01-18T05:13:57.237Z,1016.3
2016-01-18T05:14:57.301Z,1016.26
2016-01-18T05:15:57.350Z,1016.29
2016-01-18T05:16:57.401Z,1016.28
2016-01-18T05:17:57.451Z,1016.26
2016-01-18T05:18:57.515Z,1016.29
2016-01-18T05:19:57.564Z,1016.29
2016-01-18T05:20:57.614Z,1016.29
2016-01-18T05:21:57.680Z,1016.28
2016-01-18T05:22:57.730Z,1016.24
2016-01-18T05:23:57.778Z,1016.24
2016-01-18T05:24:57.828Z,1016.28
2016-01-18T05:25:57.894Z,1016.29
2016-01-18T05:26:57.943Z,1016.26
2016-01-18T05:27:57.993Z,1016.29
2016-01-18T05:28:58.042Z,1016.31
2016-01-18T05:29:58.108Z,1016.31
2016-01-18T05:30:58.158Z,1016.29
2016-01-18T05:31:58.207Z,1016.28
2016-01-18T05:32:58.257Z,1016.3
2016-01-18T05:33:58.322Z,1016.28
2016-01-18T05:34:58.371Z,1016.32
2016-01-18T05:35:58.421Z,1016.29
2016-01-18T05:36:58.470Z,1016.3
2016-01-18T05:37:58.535Z,1016.29
2016-01-18T05:38:58.585Z,1016.26
2016-01-18T05:39:58.635Z,1016.3
2016-01-18T05:40:58.684Z,1016.29
2016-01-18T05:41:58.749Z,1016.28
2016-01-18T05:42:58.798Z,1016.27
2016-01-18T05:43:58.849Z,1016.27
2016-01-18T05:44:58.914Z,1016.26
2016-01-18T05:45:58.962Z,1016.2
2016-01-18T05:46:59.012Z,1016.23
2016-01-18T05:47:59.061Z,1016.19
2016-01-18T05:48:59.128Z,1016.19
2016-01-18T05:49:59.177Z,1016.21
2016-01-18T05:50:59.226Z,1016.15
2016-01-18T05:51:59.275Z,1016.15
2016-01-18T05:52:59.342Z,1016.18
2016-01-18T05:53:59.391Z,1016.15
2016-01-18T05:54:59.441Z,1016.12
2016-01-18T05:55:59.489Z,1016.16
2016-01-18T05:56:59.555Z,1016.14
2016-01-18T05:57:59.605Z,1016.12
2016-01-18T05:58:59.655Z,1016.17
2016-01-18T05:59:59.704Z,1016.18
2016-01-18T06:00:59.769Z,1016.19
2016-01-18T06:01:59.819Z,1016.18
2016-01-18T06:02:59.868Z,1016.18
2016-01-18T06:03:59.918Z,1016.19
2016-01-18T06:04:59.982Z,1016.16
2016-01-18T06:06:00.033Z,1016.18
2016-01-18T06:07:00.082Z,1016.19
2016-01-18T06:08:00.147Z,1016.18
2016-01-18T06:09:00.196Z,1016.15
2016-01-18T06:10:00.246Z,1016.15
2016-01-18T06:11:00.296Z,1016.17
2016-01-18T06:12:00.361Z,1016.22
2016-01-18T06:13:00.410Z,1016.19
2016-01-18T06:14:00.476Z,1016.19
2016-01-18T06:15:00.509Z,1016.17
2016-01-18T06:16:00.559Z,1016.14
2016-01-18T06:17:00.875Z,1016.11
2016-01-18T06:18:00.671Z,1016.15
2016-01-18T06:19:00.721Z,1016.12
2016-01-18T06:20:00.786Z,1016.14
2016-01-18T06:21:00.836Z,1016.15
2016-01-18T06:22:00.886Z,1016.15
2016-01-18T06:23:00.935Z,1016.12
2016-01-18T06:24:01.000Z,1016.1
2016-01-18T06:25:01.050Z,1016.1
2016-01-18T06:26:01.099Z,1016.1
2016-01-18T06:27:01.149Z,1016.07
2016-01-18T06:28:01.214Z,1016.13
2016-01-18T06:29:01.264Z,1016.14
2016-01-18T06:30:01.313Z,1016.09
2016-01-18T06:31:01.363Z,1016.12
2016-01-18T06:32:01.428Z,1016.14
2016-01-18T06:33:01.478Z,1016.13
2016-01-18T06:34:01.543Z,1016.12
2016-01-18T06:35:01.577Z,1016.12
2016-01-18T06:36:01.642Z,1016.12
2016-01-18T06:37:01.691Z,1016.14
2016-01-18T06:38:01.741Z,1016.1
2016-01-18T06:39:01.791Z,1016.09
2016-01-18T06:40:01.856Z,1016.1
2016-01-18T06:41:01.905Z,1016.1
2016-01-18T06:42:01.954Z,1016.09
2016-01-18T06:43:02.005Z,1016.08
2016-01-18T06:44:02.070Z,1016.06
2016-01-18T06:45:02.119Z,1016.11
2016-01-18T06:46:02.168Z,1016.07
2016-01-18T06:47:02.234Z,1016.09
2016-01-18T06:48:02.284Z,1016.07
2016-01-18T06:49:02.334Z,1016.15
2016-01-18T06:50:02.382Z,1016.13
2016-01-18T06:51:02.432Z,1016.12
2016-01-18T06:52:02.497Z,1016.11
2016-01-18T06:53:02.548Z,1016.17
2016-01-18T06:54:02.597Z,1016.14
2016-01-18T06:55:02.646Z,1016.13
2016-01-18T06:56:02.711Z,1016.12
2016-01-18T06:57:02.761Z,1016.14
2016-01-18T06:58:02.811Z,1016.13
2016-01-18T06:59:02.860Z,1016.16
2016-01-18T07:00:02.925Z,1016.17
2016-01-18T07:01:02.975Z,1016.14
2016-01-18T07:02:03.025Z,1016.14
2016-01-18T07:03:03.089Z,1016.2
2016-01-18T07:04:03.139Z,1016.2
2016-01-18T07:05:03.188Z,1016.19
2016-01-18T07:06:03.239Z,1016.2
2016-01-18T07:07:03.303Z,1016.19
2016-01-18T07:08:03.353Z,1016.2
2016-01-18T07:09:03.402Z,1016.2
2016-01-18T07:10:03.453Z,1016.17
2016-01-18T07:11:03.501Z,1016.2
2016-01-18T07:12:03.567Z,1016.18
2016-01-18T07:13:03.616Z,1016.2
2016-01-18T07:14:03.665Z,1016.23
2016-01-18T07:15:03.716Z,1016.21
2016-01-18T07:16:03.781Z,1016.25
2016-01-18T07:17:03.830Z,1016.23
2016-01-18T07:18:03.880Z,1016.2
2016-01-18T07:19:03.945Z,1016.21
2016-01-18T07:20:03.995Z,1016.19
2016-01-18T07:21:04.044Z,1016.21
2016-01-18T07:22:04.093Z,1016.18
2016-01-18T07:23:04.159Z,1016.2
2016-01-18T07:24:04.256Z,1016.21
2016-01-18T07:25:04.259Z,1016.22
2016-01-18T07:26:04.308Z,1016.22
2016-01-18T07:27:04.373Z,1016.23
2016-01-18T07:28:04.422Z,1016.27
2016-01-18T07:29:04.473Z,1016.25
2016-01-18T07:30:04.522Z,1016.24
2016-01-18T07:31:04.586Z,1016.25
2016-01-18T07:32:04.637Z,1016.25
2016-01-18T07:33:04.686Z,1016.25
2016-01-18T07:34:04.736Z,1016.22
2016-01-18T07:35:04.800Z,1016.3
2016-01-18T07:36:04.850Z,1016.24
2016-01-18T07:37:04.900Z,1016.23
2016-01-18T07:38:04.949Z,1016.22
2016-01-18T07:39:05.014Z,1016.21
2016-01-18T07:40:05.064Z,1016.24
2016-01-18T07:41:05.114Z,1016.2
2016-01-18T07:42:05.164Z,1016.19
2016-01-18T07:43:05.229Z,1016.17
2016-01-18T07:44:05.278Z,1016.15
2016-01-18T07:45:05.328Z,1016.17
2016-01-18T07:46:05.377Z,1016.13
2016-01-18T07:47:05.442Z,1016.14
2016-01-18T07:48:05.492Z,1016.17
2016-01-18T07:49:05.541Z,1016.16
2016-01-18T07:50:05.591Z,1016.12
2016-01-18T07:51:05.656Z,1016.14
2016-01-18T07:52:05.706Z,1016.12
2016-01-18T07:53:05.755Z,1016.1
2016-01-18T07:54:05.804Z,1016.09
2016-01-18T07:55:05.871Z,1016.1
2016-01-18T07:56:05.920Z,1016.11
2016-01-18T07:57:05.969Z,1016.07
2016-01-18T07:58:06.019Z,1016.1
2016-01-18T07:59:06.084Z,1016.06
2016-01-18T08:00:06.134Z,1016.06
2016-01-18T08:01:06.184Z,1016.05
2016-01-18T08:02:06.233Z,1016.01
2016-01-18T08:03:06.297Z,1016.05
2016-01-18T08:04:06.364Z,1016.02
2016-01-18T08:05:06.397Z,1016.06
2016-01-18T08:06:06.447Z,1016.04
2016-01-18T08:07:06.511Z,1016.03
2016-01-18T08:08:06.561Z,1016.06
2016-01-18T08:09:06.611Z,1016.03
2016-01-18T08:10:06.660Z,1016.1
2016-01-18T08:11:06.725Z,1016.08
2016-01-18T08:12:06.775Z,1016.08
2016-01-18T08:13:06.824Z,1016.1
2016-01-18T08:14:06.937Z,1016.12
2016-01-18T08:15:06.940Z,1016.09
2016-01-18T08:16:06.989Z,1016.08
2016-01-18T08:17:07.039Z,1016.04
2016-01-18T08:18:07.088Z,1016.01
2016-01-18T08:19:07.154Z,1016.02
2016-01-18T08:20:07.204Z,1016.02
2016-01-18T08:21:07.252Z,1015.98
2016-01-18T08:22:07.302Z,1016
2016-01-18T08:23:07.368Z,1015.99
2016-01-18T08:24:07.417Z,1016.03
2016-01-18T08:25:07.467Z,1015.97
2016-01-18T08:26:07.516Z,1015.97
2016-01-18T08:27:07.566Z,1015.96
2016-01-18T08:28:07.633Z,1015.9
2016-01-18T08:29:07.681Z,1015.9
2016-01-18T08:30:07.747Z,1015.9
2016-01-18T08:31:07.796Z,1015.89
2016-01-18T08:32:07.846Z,1015.9
2016-01-18T08:33:07.896Z,1015.91
2016-01-18T08:34:07.946Z,1015.88
2016-01-18T08:35:08.073Z,1015.84
2016-01-18T08:36:08.060Z,1015.89
2016-01-18T08:37:08.110Z,1015.89
2016-01-18T08:38:08.159Z,1015.86
2016-01-18T08:39:08.209Z,1015.84
2016-01-18T08:40:08.273Z,1015.84
2016-01-18T08:41:11.354Z,1015.81
2016-01-18T08:42:08.467Z,1015.85
2016-01-18T08:43:08.418Z,1015.86
2016-01-18T08:44:08.469Z,1015.84
2016-01-18T08:45:08.506Z,1015.85
2016-01-18T08:46:08.589Z,1015.84
2016-01-18T08:47:08.656Z,1015.82
2016-01-18T08:48:08.648Z,1015.88
2016-01-18T08:49:08.677Z,1015.86
2016-01-18T08:50:08.753Z,1015.86
2016-01-18T08:51:08.766Z,1015.87
2016-01-18T08:52:08.827Z,1015.86
2016-01-18T08:53:08.888Z,1015.85
2016-01-18T08:54:08.920Z,1015.84
2016-01-18T08:55:08.969Z,1015.82
2016-01-18T08:56:09.032Z,1015.79
2016-01-18T08:57:09.081Z,1015.83
2016-01-18T08:58:09.128Z,1015.86
2016-01-18T08:59:09.630Z,1015.82
2016-01-18T09:00:09.241Z,1015.82
2016-01-18T09:01:09.290Z,1015.8
2016-01-18T09:02:09.339Z,1015.77
2016-01-18T09:03:09.388Z,1015.73
2016-01-18T09:04:09.437Z,1015.76
2016-01-18T09:05:09.502Z,1015.73
2016-01-18T09:06:09.552Z,1015.73
2016-01-18T09:07:09.601Z,1015.69
2016-01-18T09:08:09.650Z,1015.72
2016-01-18T09:09:09.715Z,1015.7
2016-01-18T09:10:09.764Z,1015.67
2016-01-18T09:11:09.829Z,1015.68
2016-01-18T09:12:09.864Z,1015.67
2016-01-18T09:13:09.929Z,1015.67
2016-01-18T09:14:09.979Z,1015.69
2016-01-18T09:15:10.028Z,1015.66
2016-01-18T09:16:10.078Z,1015.69
2016-01-18T09:17:10.315Z,1015.73
2016-01-18T09:18:10.193Z,1015.74
2016-01-18T09:19:10.259Z,1015.75
2016-01-18T09:20:10.308Z,1015.77
2016-01-18T09:21:10.343Z,1015.72
2016-01-18T09:22:10.407Z,1015.71
2016-01-18T09:23:10.457Z,1015.67
2016-01-18T09:24:10.507Z,1015.64
2016-01-18T09:25:10.556Z,1015.68
2016-01-18T09:26:10.621Z,1015.64
2016-01-18T09:27:10.670Z,1015.65
2016-01-18T09:28:10.720Z,1015.64
2016-01-18T09:29:10.770Z,1015.63
2016-01-18T09:30:10.820Z,1015.56
2016-01-18T09:31:10.884Z,1015.61
2016-01-18T09:32:10.934Z,1015.6
2016-01-18T09:33:10.984Z,1015.58
2016-01-18T09:34:11.033Z,1015.6
2016-01-18T09:35:11.098Z,1015.52
2016-01-18T09:36:11.147Z,1015.53
2016-01-18T09:37:11.198Z,1015.5
2016-01-18T09:38:11.247Z,1015.51
2016-01-18T09:39:11.313Z,1015.52
2016-01-18T09:40:11.361Z,1015.51
2016-01-18T09:41:11.411Z,1015.52
2016-01-18T09:42:11.476Z,1015.54
2016-01-18T09:43:11.527Z,1015.49
2016-01-18T09:44:11.576Z,1015.49
2016-01-18T09:45:11.625Z,1015.48
2016-01-18T09:46:11.675Z,1015.48
2016-01-18T09:47:11.740Z,1015.47
2016-01-18T09:48:11.790Z,1015.49
2016-01-18T09:49:11.840Z,1015.5
2016-01-18T09:50:11.888Z,1015.46
2016-01-18T09:51:11.955Z,1015.51
2016-01-18T09:52:12.003Z,1015.51
2016-01-18T09:53:12.053Z,1015.51
2016-01-18T09:54:12.103Z,1015.46
2016-01-18T09:55:12.168Z,1015.45
2016-01-18T09:56:12.218Z,1015.45
2016-01-18T09:57:12.267Z,1015.43
2016-01-18T09:58:12.317Z,1015.4
2016-01-18T09:59:12.382Z,1015.39
2016-01-18T10:00:12.431Z,1015.33
2016-01-18T10:01:12.481Z,1015.32
2016-01-18T10:02:12.531Z,1015.32
2016-01-18T10:03:12.611Z,1015.32
2016-01-18T10:04:12.643Z,1015.3
2016-01-18T10:05:12.692Z,1015.29
2016-01-18T10:06:12.742Z,1015.32
2016-01-18T10:07:12.808Z,1015.32
2016-01-18T10:08:12.856Z,1015.26
2016-01-18T10:09:12.906Z,1015.23
2016-01-18T10:10:12.956Z,1015.22
2016-01-18T10:11:13.021Z,1015.25
2016-01-18T10:12:13.149Z,1015.25
2016-01-18T10:13:13.120Z,1015.22
2016-01-18T10:14:13.170Z,1015.24
2016-01-18T10:15:13.220Z,1015.23
2016-01-18T10:16:13.285Z,1015.21
2016-01-18T10:17:13.335Z,1015.2
2016-01-18T10:18:13.383Z,1015.14
2016-01-18T10:19:13.450Z,1015.19
2016-01-18T10:20:13.499Z,1015.15
2016-01-18T10:21:13.549Z,1015.16
2016-01-18T10:22:13.598Z,1015.16
2016-01-18T10:23:13.664Z,1015.19
2016-01-18T10:24:13.713Z,1015.12
2016-01-18T10:25:13.763Z,1015.14
2016-01-18T10:26:13.812Z,1015.1
2016-01-18T10:27:13.876Z,1015.06
2016-01-18T10:28:13.927Z,1015.05
2016-01-18T10:29:13.977Z,1014.99
2016-01-18T10:30:14.026Z,1014.95
2016-01-18T10:31:14.090Z,1014.95
2016-01-18T10:32:14.140Z,1014.93
2016-01-18T10:33:14.190Z,1014.91
2016-01-18T10:34:14.256Z,1014.89
2016-01-18T10:35:14.304Z,1014.88
2016-01-18T10:36:14.354Z,1014.9
2016-01-18T10:37:14.403Z,1014.86
2016-01-18T10:38:14.469Z,1014.85
2016-01-18T10:39:14.519Z,1014.84
2016-01-18T10:40:14.568Z,1014.86
2016-01-18T10:41:14.617Z,1014.82
2016-01-18T10:42:14.683Z,1014.79
2016-01-18T10:43:14.780Z,1014.77
2016-01-18T10:44:14.783Z,1014.82
2016-01-18T10:45:14.831Z,1014.81
2016-01-18T10:46:14.897Z,1014.76
2016-01-18T10:47:14.947Z,1014.78
2016-01-18T10:48:14.996Z,1014.75
2016-01-18T10:49:15.046Z,1014.76
2016-01-18T10:50:15.111Z,1014.69
2016-01-18T10:51:15.161Z,1014.7
2016-01-18T10:52:15.225Z,1014.72
2016-01-18T10:53:15.275Z,1014.73
2016-01-18T10:54:15.324Z,1014.73
2016-01-18T10:55:15.375Z,1014.69
2016-01-18T10:56:15.424Z,1014.73
2016-01-18T10:57:15.473Z,1014.73
2016-01-18T10:58:15.538Z,1014.72
2016-01-18T10:59:15.587Z,1014.74
2016-01-18T11:00:15.638Z,1014.73
2016-01-18T11:01:15.703Z,1014.66
2016-01-18T11:02:15.752Z,1014.71
2016-01-18T11:03:15.801Z,1014.69
2016-01-18T11:04:15.851Z,1014.62
2016-01-18T11:05:15.917Z,1014.6
2016-01-18T11:06:15.967Z,1014.51
2016-01-18T11:07:16.015Z,1014.54
2016-01-18T11:08:16.190Z,1014.51
2016-01-18T11:09:16.131Z,1014.56
2016-01-18T11:10:16.181Z,1014.55
2016-01-18T11:11:16.230Z,1014.54
2016-01-18T11:12:16.311Z,1014.51
2016-01-18T11:13:16.345Z,1014.54
2016-01-18T11:14:16.394Z,1014.5
2016-01-18T11:15:16.459Z,1014.45
2016-01-18T11:16:16.508Z,1014.43
2016-01-18T11:17:16.559Z,1014.4
2016-01-18T11:18:16.608Z,1014.39
2016-01-18T11:19:16.658Z,1014.38
2016-01-18T11:20:16.722Z,1014.37
2016-01-18T11:21:16.772Z,1014.4
2016-01-18T11:22:16.822Z,1014.39
2016-01-18T11:23:16.872Z,1014.34
2016-01-18T11:24:16.936Z,1014.34
2016-01-18T11:25:16.986Z,1014.3
2016-01-18T11:26:17.035Z,1014.32
2016-01-18T11:27:17.086Z,1014.27
2016-01-18T11:28:17.151Z,1014.23
2016-01-18T11:29:17.199Z,1014.25
2016-01-18T11:30:17.249Z,1014.19
2016-01-18T11:31:17.299Z,1014.21
2016-01-18T11:32:17.365Z,1014.21
2016-01-18T11:33:17.414Z,1014.18
2016-01-18T11:34:17.463Z,1014.18
2016-01-18T11:35:17.529Z,1014.16
2016-01-18T11:36:17.579Z,1014.16
2016-01-18T11:37:17.628Z,1014.15
2016-01-18T11:38:17.678Z,1014.1
2016-01-18T11:39:17.727Z,1014.14
2016-01-18T11:40:17.809Z,1014.1
2016-01-18T11:41:17.842Z,1014.02
2016-01-18T11:42:17.892Z,1014
2016-01-18T11:43:17.956Z,1014.01
2016-01-18T11:44:18.006Z,1013.97
2016-01-18T11:45:18.056Z,1013.95
2016-01-18T11:46:18.106Z,1013.89
2016-01-18T11:47:18.170Z,1013.88
2016-01-18T11:48:18.219Z,1013.89
2016-01-18T11:49:18.270Z,1013.86
2016-01-18T11:50:18.335Z,1013.86
2016-01-18T11:51:18.400Z,1013.86
2016-01-18T11:52:18.433Z,1013.84
2016-01-18T11:53:18.483Z,1013.84
2016-01-18T11:54:18.549Z,1013.82
2016-01-18T11:55:18.599Z,1013.86
2016-01-18T11:56:18.647Z,1013.9
2016-01-18T11:57:18.697Z,1013.87
2016-01-18T11:58:18.763Z,1013.9
2016-01-18T11:59:18.812Z,1013.88
2016-01-18T12:00:18.862Z,1013.89
2016-01-18T12:01:18.911Z,1013.9
2016-01-18T12:02:18.977Z,1013.89
2016-01-18T12:03:19.026Z,1013.86
2016-01-18T12:04:19.076Z,1013.87
2016-01-18T12:05:19.125Z,1013.85
2016-01-18T12:06:19.191Z,1013.82
2016-01-18T12:07:19.240Z,1013.84
2016-01-18T12:08:19.290Z,1013.86
2016-01-18T12:09:19.464Z,1013.81